Time;durP1;ratioP1;P1;durP2;ratioP2;P2;SDS_P1;SDS_P2;PMS_P1;PMS_P2;Temp;Humidity;BMP_temperature;BMP_pressure;BME280_temperature;BME280_humidity;BME280_pressure;Samples;Min_cycle;Max_cycle;Signal;HPM_P1;HPM_P2
2022/02/18 00:02:04;;;;;;;6.27;1.20;;;;;;;5.52;66.03;100089.63;5004956;28;20207;-72
2022/02/18 00:04:30;;;;;;;8.10;1.43;;;;;;;5.52;66.28;100083.50;5005734;28;20207;-73
2022/02/18 00:06:57;;;;;;;9.63;2.07;;;;;;;5.53;66.52;100083.41;5006373;28;20209;-74
2022/02/18 00:09:23;;;;;;;7.60;1.70;;;;;;;5.55;66.67;100086.00;5004804;28;20214;-73
2022/02/18 00:11:51;;;;;;;7.33;1.60;;;;;;;5.57;67.56;100086.72;4997080;28;20245;-72
2022/02/18 00:14:18;;;;;;;5.90;1.67;;;;;;;5.59;67.61;100091.00;5001972;28;20611;-73
2022/02/18 00:16:44;;;;;;;3.80;1.63;;;;;;;5.61;67.88;100098.84;5002478;28;20779;-73
2022/02/18 00:19:11;;;;;;;5.33;2.20;;;;;;;5.63;68.43;100102.28;4995938;28;20217;-73
2022/02/18 00:21:38;;;;;;;7.03;2.13;;;;;;;5.64;68.11;100098.69;4997544;28;20204;-74
2022/02/18 00:24:05;;;;;;;5.83;2.10;;;;;;;5.64;68.28;100100.50;4995799;28;20227;-73
2022/02/18 00:26:32;;;;;;;7.77;2.40;;;;;;;5.64;68.81;100097.84;5000660;28;20207;-73
2022/02/18 00:29:00;;;;;;;11.03;2.33;;;;;;;5.62;69.31;100105.00;4998230;28;20210;-73
2022/02/18 00:31:26;;;;;;;9.40;3.27;;;;;;;5.63;69.28;100101.41;5003248;28;20211;-72
2022/02/18 00:33:53;;;;;;;5.90;1.83;;;;;;;5.62;69.46;100105.84;4998046;28;20242;-73
2022/02/18 00:36:19;;;;;;;6.80;1.77;;;;;;;5.61;69.77;100114.72;5004160;28;20214;-72
2022/02/18 00:38:46;;;;;;;7.37;2.07;;;;;;;5.61;69.95;100105.94;5005494;28;20218;-73
2022/02/18 00:41:13;;;;;;;8.10;1.53;;;;;;;5.62;70.02;100115.56;5002807;28;20233;-74
2022/02/18 00:43:40;;;;;;;6.27;1.67;;;;;;;5.62;69.91;100099.72;5010019;28;20227;-73
2022/02/18 00:46:07;;;;;;;8.67;1.97;;;;;;;5.61;70.14;100093.56;4996638;28;20308;-72
2022/02/18 00:48:34;;;;;;;6.63;1.83;;;;;;;5.62;70.25;100099.72;4993836;28;20207;-73
2022/02/18 00:51:01;;;;;;;8.30;1.60;;;;;;;5.62;70.89;100115.56;5002866;28;20218;-73
2022/02/18 00:53:27;;;;;;;7.10;1.57;;;;;;;5.64;70.31;100113.69;5000938;28;20309;-74
2022/02/18 00:55:54;;;;;;;6.83;1.50;;;;;;;5.63;70.69;100107.56;4997283;28;20210;-73
2022/02/18 00:58:20;;;;;;;4.27;1.30;;;;;;;5.64;70.74;100108.41;5001416;28;20207;-73
2022/02/18 01:00:49;;;;;;;5.73;1.43;;;;;;;5.64;70.74;100103.13;5002027;28;20575;-73
2022/02/18 01:03:17;;;;;;;3.87;1.27;;;;;;;5.65;70.64;100100.41;5004947;28;20313;-73
2022/02/18 01:05:44;;;;;;;5.10;1.63;;;;;;;5.64;70.76;100118.97;4998728;28;20216;-74
2022/02/18 01:08:10;;;;;;;6.53;1.90;;;;;;;5.65;71.12;100112.75;4995272;28;20202;-73
2022/02/18 01:10:37;;;;;;;9.63;1.97;;;;;;;5.66;71.05;100119.75;5010328;28;20206;-74
2022/02/18 01:13:03;;;;;;;4.70;2.30;;;;;;;5.65;71.03;100124.19;5008446;28;20241;-73
2022/02/18 01:15:30;;;;;;;8.50;2.70;;;;;;;5.66;72.03;100117.97;4997144;28;20215;-73
2022/02/18 01:17:57;;;;;;;9.63;2.00;;;;;;;5.66;71.35;100127.69;5003216;28;20648;-72
2022/02/18 01:20:25;;;;;;;4.63;2.00;;;;;;;5.67;71.73;100142.59;4997594;28;20215;-73
2022/02/18 01:22:52;;;;;;;5.40;2.07;;;;;;;5.68;71.45;100147.81;5001368;28;20233;-74
2022/02/18 01:25:18;;;;;;;6.23;2.47;;;;;;;5.69;71.23;100144.25;4998152;28;20216;-73
2022/02/18 01:27:45;;;;;;;8.37;2.90;;;;;;;5.69;71.59;100151.31;5013704;28;20214;-73
2022/02/18 01:30:12;;;;;;;6.73;2.30;;;;;;;5.69;71.55;100146.03;5020714;28;20200;-73
2022/02/18 01:32:39;;;;;;;8.53;3.10;;;;;;;5.69;71.80;100143.38;5009998;28;20237;-73
2022/02/18 01:35:07;;;;;;;5.93;2.30;;;;;;;5.69;71.76;100138.09;5016841;28;20203;-73
2022/02/18 01:37:35;;;;;;;5.07;2.60;;;;;;;5.71;71.79;100141.53;5003603;28;20202;-74
2022/02/18 01:40:02;;;;;;;7.10;3.00;;;;;;;5.70;71.72;100127.47;5019326;28;20206;-73
2022/02/18 01:42:28;;;;;;;7.93;3.07;;;;;;;5.70;72.22;100129.25;5011034;28;20601;-74
2022/02/18 01:44:55;;;;;;;6.73;2.80;;;;;;;5.69;72.18;100124.91;5008616;28;20198;-73
2022/02/18 01:47:24;;;;;;;6.27;2.97;;;;;;;5.69;72.51;100122.25;5009633;28;20215;-73
2022/02/18 01:49:54;;;;;;;9.50;3.27;;;;;;;5.69;72.52;100120.47;5010986;28;20290;-73
2022/02/18 01:52:25;;;;;;;11.63;3.50;;;;;;;5.67;72.18;100122.31;5006637;28;20238;-72
2022/02/18 01:54:53;;;;;;;6.87;3.00;;;;;;;5.68;72.34;100112.63;5003765;28;20227;-73
2022/02/18 01:57:20;;;;;;;8.30;3.20;;;;;;;5.67;72.40;100129.41;4999410;28;20219;-73
2022/02/18 01:59:47;;;;;;;8.83;3.33;;;;;;;5.67;72.64;100113.53;4997173;28;20214;-72
2022/02/18 02:02:13;;;;;;;8.23;3.07;;;;;;;5.68;73.04;100118.75;5010293;28;20229;-73
2022/02/18 02:04:40;;;;;;;10.53;3.10;;;;;;;5.68;72.61;100110.81;5006052;28;20673;-73
2022/02/18 02:07:07;;;;;;;7.43;3.43;;;;;;;5.69;72.69;100094.03;5001397;28;20211;-74
2022/02/18 02:09:34;;;;;;;5.53;2.70;;;;;;;5.69;72.67;100086.13;5011664;28;20237;-73
2022/02/18 02:12:02;;;;;;;6.23;2.60;;;;;;;5.70;72.90;100087.81;5006730;28;20668;-73
2022/02/18 02:14:29;;;;;;;8.70;3.30;;;;;;;5.69;72.97;100094.03;5004438;28;20763;-74
2022/02/18 02:16:55;;;;;;;8.07;3.63;;;;;;;5.71;73.20;100093.97;5010698;28;20199;-73
2022/02/18 02:19:22;;;;;;;6.17;3.10;;;;;;;5.69;73.19;100098.47;5011270;28;20214;-72
2022/02/18 02:21:52;;;;;;;8.53;2.70;;;;;;;5.70;73.13;100093.13;5005061;28;20203;-73
2022/02/18 02:24:20;;;;;;;6.83;2.60;;;;;;;5.70;73.10;100089.63;4996508;28;20210;-73
2022/02/18 02:26:47;;;;;;;7.80;2.70;;;;;;;5.68;73.32;100102.03;5002798;28;20203;-73
2022/02/18 02:29:13;;;;;;;7.40;2.50;;;;;;;5.68;73.08;100105.53;5010102;28;20221;-72
2022/02/18 02:31:41;;;;;;;12.80;3.10;;;;;;;5.68;73.37;100092.34;5008965;28;20214;-73
2022/02/18 02:34:08;;;;;;;8.13;2.70;;;;;;;5.69;73.24;100101.13;5004101;28;20230;-73
2022/02/18 02:36:35;;;;;;;6.60;2.87;;;;;;;5.68;73.30;100086.19;5011550;28;20688;-72
2022/02/18 02:39:02;;;;;;;9.40;2.67;;;;;;;5.67;73.89;100089.78;5004441;28;20266;-73
2022/02/18 02:41:30;;;;;;;12.20;2.80;;;;;;;5.67;73.25;100087.13;5008000;28;20203;-73
2022/02/18 02:43:57;;;;;;;8.23;2.83;;;;;;;5.66;73.52;100081.00;5001741;28;20234;-73
2022/02/18 02:46:24;;;;;;;9.37;2.97;;;;;;;5.67;73.66;100077.41;5007559;28;20208;-73
2022/02/18 02:48:50;;;;;;;7.03;3.50;;;;;;;5.66;73.45;100072.22;5006001;28;20672;-73
2022/02/18 02:51:17;;;;;;;6.50;2.40;;;;;;;5.67;73.96;100076.56;5013604;28;20216;-73
2022/02/18 02:53:43;;;;;;;7.27;2.60;;;;;;;5.67;73.94;100084.47;5005861;28;20322;-73
2022/02/18 02:56:10;;;;;;;9.47;2.47;;;;;;;5.69;73.88;100077.34;5037021;22;20762;-71
2022/02/18 02:58:38;;;;;;;6.87;2.47;;;;;;;5.70;74.25;100071.97;5030996;28;20594;-71
2022/02/18 03:01:05;;;;;;;7.80;2.43;;;;;;;5.70;73.54;100071.13;5035293;28;20248;-71
2022/02/18 03:03:32;;;;;;;7.60;2.97;;;;;;;5.70;74.10;100073.75;5032031;28;20576;-71
2022/02/18 03:05:59;;;;;;;10.60;2.80;;;;;;;5.70;74.31;100076.41;5031939;28;20238;-71
2022/02/18 03:08:25;;;;;;;8.60;2.93;;;;;;;5.71;74.20;100067.53;5027234;28;20214;-71
2022/02/18 03:13:32;;;;;;;9.53;2.67;;;;;;;5.72;74.42;100071.91;5030925;28;20225;-71
2022/02/18 03:16:00;;;;;;;11.40;3.53;;;;;;;5.73;74.35;100076.25;5016597;28;20239;-71
2022/02/18 03:18:26;;;;;;;11.80;3.20;;;;;;;5.72;74.40;100074.53;5031563;28;20225;-71
2022/02/18 03:20:53;;;;;;;10.20;3.10;;;;;;;5.72;74.49;100082.47;5016824;28;20215;-71
2022/02/18 03:23:19;;;;;;;8.30;3.43;;;;;;;5.70;74.85;100077.25;5028697;28;20221;-72
2022/02/18 03:25:46;;;;;;;11.00;3.17;;;;;;;5.69;74.74;100087.91;5023458;28;20222;-72
2022/02/18 03:28:12;;;;;;;10.73;3.47;;;;;;;5.69;74.66;100091.41;5025384;28;20202;-70
2022/02/18 03:30:39;;;;;;;12.90;3.50;;;;;;;5.68;74.88;100088.84;5016861;28;20213;-71
2022/02/18 03:33:08;;;;;;;13.47;3.30;;;;;;;5.67;75.02;100097.69;5020204;28;20226;-71
2022/02/18 03:35:35;;;;;;;12.40;3.50;;;;;;;5.67;75.55;100097.69;5021645;28;20241;-71
2022/02/18 03:38:02;;;;;;;10.90;3.30;;;;;;;5.68;75.71;100099.41;5017820;28;20203;-71
2022/02/18 03:40:30;;;;;;;11.30;3.30;;;;;;;5.69;75.50;100090.53;5034544;28;20223;-71
2022/02/18 03:42:56;;;;;;;13.17;3.13;;;;;;;5.70;75.40;100100.19;5022609;28;20214;-70
2022/02/18 03:45:23;;;;;;;12.87;3.50;;;;;;;5.69;75.65;100098.47;5030685;28;20244;-72
2022/02/18 03:47:49;;;;;;;9.53;3.27;;;;;;;5.69;75.75;100103.75;5027185;28;20583;-71
2022/02/18 03:50:18;;;;;;;10.23;3.90;;;;;;;5.68;75.94;100087.03;5020228;28;20211;-71
2022/02/18 03:52:45;;;;;;;15.33;5.00;;;;;;;5.67;76.17;100090.63;5017101;28;20198;-71
2022/02/18 03:55:11;;;;;;;8.43;4.30;;;;;;;5.66;75.98;100080.13;5016196;28;20234;-70
2022/02/18 03:57:38;;;;;;;11.53;4.20;;;;;;;5.66;76.45;100082.78;5028263;28;20214;-70
2022/02/18 04:00:07;;;;;;;10.50;4.03;;;;;;;5.63;76.58;100080.28;5024846;28;20210;-71
2022/02/18 04:02:34;;;;;;;15.90;4.60;;;;;;;5.64;76.60;100079.34;5030396;28;20574;-71
2022/02/18 04:05:01;;;;;;;11.73;4.20;;;;;;;5.63;76.92;100073.22;5030868;28;20209;-71
2022/02/18 04:07:29;;;;;;;10.73;5.13;;;;;;;5.64;76.85;100068.78;5016470;28;20210;-71
2022/02/18 04:09:55;;;;;;;13.37;4.77;;;;;;;5.63;76.83;100067.09;5022859;28;20198;-71
2022/02/18 04:12:23;;;;;;;11.30;4.80;;;;;;;5.61;77.13;100061.88;5028914;28;20210;-71
2022/02/18 04:14:49;;;;;;;10.67;4.80;;;;;;;5.59;77.22;100056.66;5030162;28;20230;-71
2022/02/18 04:17:16;;;;;;;14.47;6.30;;;;;;;5.61;77.71;100055.72;5026659;28;20230;-70
2022/02/18 04:19:42;;;;;;;15.10;5.57;;;;;;;5.60;77.76;100054.88;5030542;28;20221;-71
2022/02/18 04:22:09;;;;;;;8.87;4.83;;;;;;;5.61;77.62;100053.09;5014725;28;20574;-71
2022/02/18 04:24:37;;;;;;;11.53;5.30;;;;;;;5.61;77.79;100061.00;5027461;28;20550;-71
2022/02/18 04:27:03;;;;;;;14.27;5.63;;;;;;;5.61;77.88;100058.38;5029521;28;20241;-71
2022/02/18 04:29:30;;;;;;;12.00;5.30;;;;;;;5.62;78.19;100058.31;5029604;28;20218;-71
2022/02/18 04:31:57;;;;;;;14.47;6.63;;;;;;;5.63;78.60;100060.00;5025486;28;20206;-70
2022/02/18 04:34:23;;;;;;;14.93;6.87;;;;;;;5.64;78.43;100066.16;5037163;28;20261;-70
2022/02/18 04:36:50;;;;;;;13.20;6.27;;;;;;;5.65;78.80;100062.56;5029501;28;20229;-70
2022/02/18 04:39:16;;;;;;;13.70;6.90;;;;;;;5.67;78.78;100064.22;5023879;28;20670;-70
2022/02/18 04:41:44;;;;;;;19.00;6.43;;;;;;;5.67;78.74;100052.78;5021715;28;20199;-70
2022/02/18 04:44:10;;;;;;;18.13;7.03;;;;;;;5.66;79.17;100059.00;5015933;28;20206;-71
2022/02/18 04:46:37;;;;;;;11.73;7.10;;;;;;;5.68;79.31;100057.13;5014364;28;20722;-71
2022/02/18 04:49:03;;;;;;;12.30;6.53;;;;;;;5.68;79.20;100052.69;5014026;28;20203;-71
2022/02/18 04:51:30;;;;;;;15.60;7.17;;;;;;;5.69;79.00;100058.84;5016454;28;20238;-71
2022/02/18 04:53:56;;;;;;;14.03;7.57;;;;;;;5.68;79.11;100052.69;5023859;28;20209;-71
2022/02/18 04:56:23;;;;;;;13.77;6.80;;;;;;;5.70;79.20;100050.00;5020747;28;21513;-70
2022/02/18 04:58:51;;;;;;;14.50;6.60;;;;;;;5.70;79.34;100040.28;5021153;28;20216;-71
2022/02/18 05:01:17;;;;;;;16.20;6.90;;;;;;;5.72;79.06;100040.19;5016186;28;20664;-70
2022/02/18 05:03:44;;;;;;;9.27;6.43;;;;;;;5.73;78.97;100036.63;5015828;28;20203;-71
2022/02/18 05:06:10;;;;;;;14.73;7.33;;;;;;;5.73;79.36;100026.06;5019619;28;20252;-70
2022/02/18 05:08:37;;;;;;;15.33;7.43;;;;;;;5.73;79.49;100018.13;5028275;28;20206;-71
2022/02/18 05:11:03;;;;;;;15.97;7.77;;;;;;;5.75;79.44;100013.59;5027696;28;20205;-70
2022/02/18 05:13:30;;;;;;;17.83;7.30;;;;;;;5.75;79.45;100016.22;5020608;28;20206;-70
2022/02/18 05:15:58;;;;;;;13.13;7.00;;;;;;;5.75;79.39;100024.16;5021728;28;20229;-71
2022/02/18 05:18:24;;;;;;;11.20;6.63;;;;;;;5.76;79.52;100024.06;5022504;28;20217;-70
2022/02/18 05:20:51;;;;;;;14.83;7.90;;;;;;;5.77;79.25;100017.00;5018223;28;20206;-70
2022/02/18 05:23:18;;;;;;;16.03;8.13;;;;;;;5.77;79.39;100019.63;5012990;28;20237;-70
2022/02/18 05:25:44;;;;;;;13.57;7.43;;;;;;;5.77;79.35;100014.34;5010454;28;20226;-70
2022/02/18 05:28:11;;;;;;;14.57;7.70;;;;;;;5.77;79.83;100001.16;5012182;28;20198;-71
2022/02/18 05:30:38;;;;;;;21.20;8.93;;;;;;;5.78;79.61;100000.22;5012624;28;20203;-70
2022/02/18 05:33:05;;;;;;;17.20;8.53;;;;;;;5.78;79.80;99993.13;5019066;28;20207;-71
2022/02/18 05:35:32;;;;;;;15.43;8.30;;;;;;;5.79;79.65;99991.34;5015214;28;20233;-71
2022/02/18 05:37:59;;;;;;;15.30;8.97;;;;;;;5.79;79.28;99994.84;5015583;28;20213;-70
2022/02/18 05:40:25;;;;;;;15.53;8.10;;;;;;;5.81;79.81;99994.75;5015810;28;20210;-70
2022/02/18 05:42:52;;;;;;;16.53;8.33;;;;;;;5.80;79.70;99983.34;5010181;28;20213;-70
2022/02/18 05:45:18;;;;;;;16.27;8.63;;;;;;;5.82;79.70;99991.19;5020331;28;20237;-71
2022/02/18 05:47:45;;;;;;;18.60;8.23;;;;;;;5.83;79.74;99987.63;5018302;28;20213;-71
2022/02/18 05:50:13;;;;;;;16.27;8.97;;;;;;;5.83;79.36;99982.31;5019360;28;20211;-70
2022/02/18 05:52:41;;;;;;;17.60;8.87;;;;;;;5.83;79.90;99977.03;5018073;28;20632;-70
2022/02/18 05:55:08;;;;;;;17.67;9.10;;;;;;;5.83;79.53;99971.75;5025553;28;20230;-70
2022/02/18 05:57:35;;;;;;;14.57;8.37;;;;;;;5.84;79.55;99963.75;5022123;28;20202;-70
2022/02/18 06:00:02;;;;;;;17.60;8.83;;;;;;;5.84;79.74;99955.81;5028490;28;20206;-70
2022/02/18 06:02:28;;;;;;;15.60;8.30;;;;;;;5.84;79.36;99954.97;5025227;28;20234;-70
2022/02/18 06:04:55;;;;;;;13.70;8.10;;;;;;;5.84;79.59;99952.31;5025236;28;20202;-70
2022/02/18 06:07:23;;;;;;;15.83;8.57;;;;;;;5.86;79.81;99955.75;5019063;28;20210;-70
2022/02/18 06:09:49;;;;;;;19.33;9.13;;;;;;;5.86;79.62;99950.47;5016564;28;20218;-70
2022/02/18 06:12:16;;;;;;;16.77;8.70;;;;;;;5.86;79.67;99939.88;5025834;28;20214;-70
2022/02/18 06:14:42;;;;;;;16.87;9.10;;;;;;;5.88;79.51;99933.63;5030828;28;20317;-70
2022/02/18 06:17:10;;;;;;;15.50;9.53;;;;;;;5.90;79.71;99923.81;5022554;28;20218;-70
2022/02/18 06:19:36;;;;;;;15.43;8.73;;;;;;;5.92;79.39;99918.41;5028604;28;20694;-70
2022/02/18 06:22:03;;;;;;;15.67;9.10;;;;;;;5.95;79.26;99928.81;5026744;28;20217;-70
2022/02/18 06:24:31;;;;;;;13.70;9.33;;;;;;;5.96;79.05;99913.81;5027705;28;20206;-70
2022/02/18 06:26:58;;;;;;;14.73;9.03;;;;;;;5.93;79.38;99905.13;5038034;28;20222;-71
2022/02/18 06:29:24;;;;;;;17.37;9.23;;;;;;;5.97;79.16;99915.53;5032964;28;20658;-72
2022/02/18 06:31:51;;;;;;;14.63;8.43;;;;;;;5.98;78.82;99902.22;5034197;28;20218;-72
2022/02/18 06:34:18;;;;;;;19.80;8.90;;;;;;;5.98;79.03;99907.50;5028345;28;20667;-72
2022/02/18 06:36:44;;;;;;;16.97;9.37;;;;;;;5.99;79.17;99909.22;5017630;28;20218;-72
2022/02/18 06:39:11;;;;;;;18.73;9.20;;;;;;;6.00;78.80;99924.13;5030810;28;20726;-72
2022/02/18 06:41:39;;;;;;;14.47;8.53;;;;;;;6.01;79.06;99915.28;5027333;28;20210;-72
2022/02/18 06:44:08;;;;;;;16.57;8.80;;;;;;;6.03;79.11;99904.63;5016889;28;20204;-72
2022/02/18 06:46:35;;;;;;;18.70;8.93;;;;;;;6.06;78.92;99920.31;5020283;28;20249;-72
2022/02/18 06:49:01;;;;;;;17.83;8.60;;;;;;;6.08;78.91;99907.88;5021431;28;20207;-72
2022/02/18 06:51:27;;;;;;;16.73;8.40;;;;;;;6.08;78.70;99898.13;5019903;28;20211;-72
2022/02/18 06:53:54;;;;;;;17.57;8.63;;;;;;;6.11;78.84;99894.44;5024295;28;20218;-72
2022/02/18 06:56:20;;;;;;;15.10;8.30;;;;;;;6.11;78.73;99891.81;5023081;28;20238;-71
2022/02/18 06:58:48;;;;;;;18.07;8.27;;;;;;;6.12;78.87;99880.28;5022364;28;20679;-71
2022/02/18 07:01:16;;;;;;;12.57;8.13;;;;;;;6.14;78.85;99875.75;5028603;28;20330;-72
2022/02/18 07:03:43;;;;;;;15.07;8.83;;;;;;;6.14;78.75;99866.03;5020202;28;20296;-72
2022/02/18 07:06:09;;;;;;;18.20;8.30;;;;;;;6.15;78.81;99878.31;5020608;28;20225;-71
2022/02/18 07:08:36;;;;;;;24.33;10.27;;;;;;;6.16;78.87;99865.97;5022773;28;20296;-72
2022/02/18 07:11:02;;;;;;;16.30;7.60;;;;;;;6.15;78.92;99864.25;5025433;28;20573;-72
2022/02/18 07:13:29;;;;;;;13.27;6.57;;;;;;;6.18;79.10;99862.28;5018443;28;20210;-72
2022/02/18 07:15:57;;;;;;;16.67;6.80;;;;;;;6.20;79.55;99863.06;5017616;28;20235;-72
2022/02/18 07:18:24;;;;;;;13.57;6.63;;;;;;;6.21;79.56;99858.63;5022234;28;20198;-72
2022/02/18 07:20:51;;;;;;;16.73;6.70;;;;;;;6.20;79.63;99857.78;5019802;28;20245;-71
2022/02/18 07:23:18;;;;;;;10.80;6.70;;;;;;;6.20;79.44;99841.91;5021708;28;20723;-71
2022/02/18 07:25:45;;;;;;;10.73;5.53;;;;;;;6.22;79.57;99820.66;5027075;28;20710;-71
2022/02/18 07:28:12;;;;;;;9.87;5.10;;;;;;;6.24;80.06;99821.44;5024012;28;20209;-72
2022/02/18 07:30:39;;;;;;;14.90;6.13;;;;;;;6.22;79.61;99815.38;5026826;28;20570;-72
2022/02/18 07:33:07;;;;;;;12.73;5.00;;;;;;;6.23;79.79;99790.66;5023753;28;20207;-72
2022/02/18 07:35:33;;;;;;;8.17;4.83;;;;;;;6.24;79.84;99776.47;5026146;28;20576;-72
2022/02/18 07:38:01;;;;;;;13.03;4.20;;;;;;;6.24;80.19;99765.91;5018987;28;20211;-72
2022/02/18 07:40:27;;;;;;;14.37;4.60;;;;;;;6.24;79.77;99756.19;5029002;28;20210;-72
2022/02/18 07:42:54;;;;;;;11.70;4.63;;;;;;;6.27;80.30;99740.09;5029311;28;20650;-72
2022/02/18 07:45:20;;;;;;;12.47;4.87;;;;;;;6.26;79.96;99714.63;5021671;28;20233;-72
2022/02/18 07:47:52;;;;;;;10.37;4.63;;;;;;;6.27;80.05;99718.94;5020330;28;20202;-72
2022/02/18 07:50:21;;;;;;;11.47;5.43;;;;;;;6.28;79.90;99731.22;5021604;28;20237;-72
2022/02/18 07:52:47;;;;;;;12.27;5.47;;;;;;;6.28;80.24;99725.94;5024552;28;20199;-71
2022/02/18 07:55:14;;;;;;;10.73;4.93;;;;;;;6.30;80.18;99722.34;5020721;28;20231;-72
2022/02/18 07:57:40;;;;;;;13.03;5.03;;;;;;;6.30;80.02;99707.34;5024594;28;20202;-72
2022/02/18 08:00:08;;;;;;;14.00;5.13;;;;;;;6.29;80.01;99692.41;5021980;28;20199;-73
2022/02/18 08:02:34;;;;;;;11.37;5.47;;;;;;;6.30;80.04;99680.06;5024772;28;20626;-72
2022/02/18 08:05:01;;;;;;;11.30;4.37;;;;;;;6.30;80.44;99680.06;5029269;28;20668;-72
2022/02/18 08:07:29;;;;;;;10.67;4.50;;;;;;;6.28;80.45;99681.00;5020193;28;20225;-72
2022/02/18 08:09:55;;;;;;;11.83;4.50;;;;;;;6.28;80.68;99659.84;5029202;28;20206;-72
2022/02/18 08:12:22;;;;;;;9.30;3.70;;;;;;;6.28;80.56;99632.53;5025333;28;20211;-72
2022/02/18 08:14:49;;;;;;;11.57;3.80;;;;;;;6.27;80.40;99618.47;5029578;28;20202;-72
2022/02/18 08:17:15;;;;;;;8.60;3.97;;;;;;;6.26;81.08;99614.16;5019622;28;20752;-72
2022/02/18 08:19:42;;;;;;;10.47;3.90;;;;;;;6.29;80.75;99615.75;5023624;28;20214;-72
2022/02/18 08:22:09;;;;;;;8.20;3.87;;;;;;;6.30;80.31;99593.63;5026392;28;20263;-72
2022/02/18 08:24:37;;;;;;;16.27;3.70;;;;;;;6.31;80.75;99589.19;5024294;28;20206;-72
2022/02/18 08:27:06;;;;;;;9.63;3.50;;;;;;;6.30;80.51;99569.00;5021879;28;20707;-72
2022/02/18 08:29:32;;;;;;;10.53;3.20;;;;;;;6.31;80.33;99568.06;5018332;28;20687;-72
2022/02/18 08:31:59;;;;;;;9.60;3.43;;;;;;;6.31;80.65;99562.75;5023796;28;20199;-71
2022/02/18 08:34:25;;;;;;;9.83;3.57;;;;;;;6.31;80.16;99565.41;5020566;28;20214;-72
2022/02/18 08:36:52;;;;;;;8.27;3.33;;;;;;;6.30;80.20;99569.00;5019200;28;20690;-72
2022/02/18 08:39:19;;;;;;;9.57;4.17;;;;;;;6.28;79.94;99572.59;5021153;28;20213;-72
2022/02/18 08:41:47;;;;;;;9.77;3.07;;;;;;;6.29;79.97;99589.28;5024086;28;20233;-72
2022/02/18 08:44:14;;;;;;;9.97;3.37;;;;;;;6.29;80.39;99570.78;5021470;28;20213;-72
2022/02/18 08:46:41;;;;;;;5.20;3.00;;;;;;;6.30;79.95;99569.84;5022796;28;20729;-72
2022/02/18 08:49:08;;;;;;;10.33;3.07;;;;;;;6.30;79.61;99551.34;5024445;28;20210;-72
2022/02/18 08:51:34;;;;;;;6.73;3.27;;;;;;;6.31;79.98;99534.53;5020652;28;20203;-72
2022/02/18 08:54:01;;;;;;;8.03;2.70;;;;;;;6.33;79.94;99531.78;5026202;28;20213;-72
2022/02/18 08:56:29;;;;;;;7.07;3.10;;;;;;;6.35;79.81;99527.25;5018933;28;20225;-72
2022/02/18 08:58:56;;;;;;;16.20;3.37;;;;;;;6.37;80.11;99538.59;5032269;28;20264;-72
2022/02/18 09:01:26;;;;;;;8.47;3.40;;;;;;;6.39;79.62;99512.91;5023474;28;20217;-72
2022/02/18 09:03:52;;;;;;;13.43;2.93;;;;;;;6.42;79.32;99504.78;5028448;28;20210;-72
2022/02/18 09:06:19;;;;;;;11.10;3.67;;;;;;;6.45;79.42;99486.88;5021624;28;20222;-72
2022/02/18 09:08:46;;;;;;;8.83;2.80;;;;;;;6.52;79.19;99490.00;5021292;28;20661;-72
2022/02/18 09:11:12;;;;;;;10.93;2.67;;;;;;;6.57;78.44;99493.19;5022400;28;20260;-72
2022/02/18 09:13:39;;;;;;;9.63;2.70;;;;;;;6.63;77.80;99487.47;5021479;28;20211;-72
2022/02/18 09:16:07;;;;;;;9.00;2.70;;;;;;;6.67;78.05;99475.75;5026729;28;20233;-72
2022/02/18 09:18:33;;;;;;;13.10;2.67;;;;;;;6.74;77.58;99457.69;5020297;28;20214;-72
2022/02/18 09:21:00;;;;;;;8.73;3.00;;;;;;;6.77;76.83;99455.69;5021804;28;20214;-72
2022/02/18 09:23:26;;;;;;;12.67;3.97;;;;;;;6.79;77.16;99445.84;5026169;28;20210;-72
2022/02/18 09:25:53;;;;;;;9.53;3.27;;;;;;;6.82;76.78;99444.78;5021197;28;20600;-72
2022/02/18 09:28:19;;;;;;;6.53;1.80;;;;;;;6.88;76.39;99429.34;5027300;28;20205;-72
2022/02/18 09:30:48;;;;;;;9.20;2.30;;;;;;;6.87;76.37;99432.94;5022457;28;20203;-72
2022/02/18 09:33:17;;;;;;;11.37;3.00;;;;;;;6.92;76.03;99419.41;5019754;28;20221;-72
2022/02/18 09:35:44;;;;;;;12.10;3.27;;;;;;;6.92;76.51;99404.38;5021573;28;20227;-72
2022/02/18 09:38:12;;;;;;;11.07;2.90;;;;;;;6.99;75.57;99401.31;5019907;28;20217;-72
2022/02/18 09:40:39;;;;;;;12.53;2.87;;;;;;;7.02;75.97;99382.53;5018976;28;20213;-72
2022/02/18 09:43:05;;;;;;;10.17;2.97;;;;;;;7.04;76.37;99373.56;5025517;28;20213;-72
2022/02/18 09:45:32;;;;;;;15.57;3.37;;;;;;;7.06;75.96;99373.44;5027150;28;20249;-72
2022/02/18 09:47:59;;;;;;;10.90;2.70;;;;;;;7.10;75.79;99370.50;5025313;28;20206;-72
2022/02/18 09:50:29;;;;;;;8.20;2.37;;;;;;;7.17;75.59;99363.78;5020396;28;20637;-72
2022/02/18 09:52:55;;;;;;;13.33;3.03;;;;;;;7.19;75.99;99358.41;5023609;28;20206;-72
2022/02/18 09:55:22;;;;;;;8.77;2.67;;;;;;;7.19;76.30;99339.88;5023379;28;20238;-72
2022/02/18 09:57:52;;;;;;;9.13;2.53;;;;;;;7.18;76.25;99325.78;5018839;28;20203;-72
2022/02/18 10:00:19;;;;;;;8.97;1.87;;;;;;;7.22;76.49;99329.06;5024820;28;20622;-72
2022/02/18 10:02:48;;;;;;;12.33;2.23;;;;;;;7.20;75.87;99313.28;5022848;28;20207;-72
2022/02/18 10:05:15;;;;;;;11.10;2.50;;;;;;;7.18;76.72;99309.88;5025437;28;20316;-72
2022/02/18 10:08:06;;;;;;;10.27;2.23;;;;;;;7.18;76.84;99301.09;5023265;28;20233;-72
2022/02/18 10:10:33;;;;;;;9.20;2.27;;;;;;;7.17;77.27;99292.31;5028303;28;20245;-72
2022/02/18 10:13:01;;;;;;;9.70;2.73;;;;;;;7.16;77.22;99288.00;5029945;28;20205;-72
2022/02/18 10:15:28;;;;;;;7.23;2.50;;;;;;;7.16;77.60;99276.56;5022235;28;20326;-71
2022/02/18 10:17:59;;;;;;;11.13;2.53;;;;;;;7.13;78.03;99274.13;5021149;28;20321;-72
2022/02/18 10:20:28;;;;;;;7.03;2.63;;;;;;;7.13;78.81;99268.81;5028756;28;20638;-72
2022/02/18 10:22:56;;;;;;;13.20;3.40;;;;;;;7.14;79.29;99257.28;5033640;28;20202;-72
2022/02/18 10:25:25;;;;;;;7.83;2.63;;;;;;;7.15;78.79;99245.75;5032347;28;20230;-72
2022/02/18 10:27:52;;;;;;;11.77;2.57;;;;;;;7.14;79.88;99246.69;5025540;28;20218;-72
2022/02/18 10:30:22;;;;;;;10.20;3.43;;;;;;;7.11;80.10;99231.88;5015309;28;20210;-71
2022/02/18 10:32:50;;;;;;;7.70;2.23;;;;;;;7.11;80.69;99228.38;5022708;28;20206;-71
2022/02/18 10:35:17;;;;;;;14.63;2.63;;;;;;;7.11;80.53;99209.84;5044212;28;20229;-72
2022/02/18 10:37:48;;;;;;;9.20;2.43;;;;;;;7.10;81.27;99208.16;5048265;28;20298;-73
2022/02/18 10:40:17;;;;;;;11.10;3.43;;;;;;;7.11;81.66;99199.25;5016207;28;20206;-72
2022/02/18 10:42:47;;;;;;;18.13;3.23;;;;;;;7.12;81.82;99171.81;5032386;28;20210;-72
2022/02/18 10:45:15;;;;;;;8.80;2.20;;;;;;;7.13;82.38;99176.16;5026008;28;20224;-73
2022/02/18 10:47:43;;;;;;;7.50;2.30;;;;;;;7.13;82.80;99158.47;5026662;28;20214;-73
2022/02/18 10:50:20;;;;;;;9.70;2.50;;;;;;;7.18;82.97;99152.81;5041958;28;20585;-72
2022/02/18 10:53:12;;;;;;;10.47;2.00;;;;;;;7.19;83.13;99141.28;5033052;28;20201;-72
2022/02/18 10:55:49;;;;;;;10.50;1.90;;;;;;;7.18;83.51;99142.22;5029153;28;20234;-71
2022/02/18 10:58:24;;;;;;;7.10;1.93;;;;;;;7.22;83.98;99133.97;5030373;28;20213;-71
2022/02/18 11:01:09;;;;;;;10.40;2.27;;;;;;;7.26;83.27;99132.78;5026343;28;20670;-71
2022/02/18 11:03:38;;;;;;;5.77;2.00;;;;;;;7.28;83.76;99122.09;5035525;28;20212;-72
2022/02/18 11:06:22;;;;;;;10.67;2.20;;;;;;;7.32;84.51;99112.97;5030945;28;20222;-72
2022/02/18 11:08:50;;;;;;;7.70;1.87;;;;;;;7.36;84.09;99093.22;5029159;28;20573;-71
2022/02/18 11:11:18;;;;;;;8.37;2.30;;;;;;;7.39;84.51;99079.75;5032504;28;20302;-71
2022/02/18 11:13:47;;;;;;;7.00;1.67;;;;;;;7.42;84.34;99074.22;5013033;28;20203;-72
2022/02/18 11:16:16;;;;;;;6.10;1.30;;;;;;;7.42;84.42;99062.78;5029272;28;20226;-72
2022/02/18 11:18:45;;;;;;;9.30;2.40;;;;;;;7.46;84.74;99043.06;5016204;28;20215;-72
2022/02/18 11:21:13;;;;;;;8.03;1.90;;;;;;;7.51;85.16;99028.50;5011263;28;20207;-72
2022/02/18 11:23:42;;;;;;;9.13;1.80;;;;;;;7.56;85.30;99028.13;5018688;28;20229;-72
2022/02/18 11:26:11;;;;;;;8.03;2.00;;;;;;;7.61;85.00;99026.81;5013947;28;20276;-72
2022/02/18 11:28:38;;;;;;;12.77;2.37;;;;;;;7.63;85.04;99009.00;5015453;28;20210;-72
2022/02/18 11:31:09;;;;;;;8.83;2.33;;;;;;;7.66;85.60;99000.81;5010955;28;20290;-72
2022/02/18 11:34:24;;;;;;;5.10;1.90;;;;;;;7.71;85.74;98984.53;5017779;28;20214;-72
2022/02/18 11:37:16;;;;;;;5.27;1.63;;;;;;;7.79;86.00;98982.16;4992220;28;20680;-72
2022/02/18 11:40:14;;;;;;;7.97;1.50;;;;;;;7.84;86.21;98973.84;5014227;28;20203;-72